Time;durP1;ratioP1;P1;durP2;ratioP2;P2;SDS_P1;SDS_P2;PMS_P1;PMS_P2;Temp;Humidity;BMP_temperature;BMP_pressure;BME280_temperature;BME280_humidity;BME280_pressure;Samples;Min_cycle;Max_cycle;Signal;HPM_P1;HPM_P2
2023/12/14 00:02:10;;;;;;;14.07;7.80;;;9.60;99.90;;;;;;5091270;28;20028;-77
2023/12/14 00:04:36;;;;;;;18.95;9.68;;;9.60;99.90;;;;;;5096277;28;20032;-79
2023/12/14 00:07:02;;;;;;;15.38;7.95;;;9.70;99.90;;;;;;5095153;28;20016;-76
2023/12/14 00:09:27;;;;;;;13.77;7.93;;;9.70;99.90;;;;;;5082327;28;20023;-78
2023/12/14 00:11:53;;;;;;;12.13;7.00;;;9.60;99.90;;;;;;5095450;28;20101;-78
2023/12/14 00:14:19;;;;;;;11.00;6.63;;;9.60;99.90;;;;;;5094984;28;20020;-78
2023/12/14 00:16:45;;;;;;;11.88;6.45;;;9.70;99.90;;;;;;5095105;28;20050;-77
2023/12/14 00:19:11;;;;;;;11.48;6.55;;;9.70;99.90;;;;;;5094792;28;20036;-78
2023/12/14 00:21:37;;;;;;;11.60;6.40;;;9.70;99.90;;;;;;5094879;28;20110;-78
2023/12/14 00:24:03;;;;;;;13.95;6.25;;;9.80;99.90;;;;;;5083040;28;20032;-79
2023/12/14 00:26:29;;;;;;;11.68;6.45;;;9.80;99.90;;;;;;5093046;28;20024;-77
2023/12/14 00:28:54;;;;;;;16.48;7.65;;;9.80;99.90;;;;;;5076899;28;20421;-79
2023/12/14 00:31:20;;;;;;;11.38;7.10;;;9.80;99.90;;;;;;5094620;28;20024;-77
2023/12/14 00:33:46;;;;;;;10.82;7.22;;;9.90;99.90;;;;;;5095069;28;20031;-78
2023/12/14 00:36:18;;;;;;;13.43;8.23;;;9.90;99.90;;;;;;5095157;28;20024;-75
2023/12/14 00:38:45;;;;;;;13.60;8.35;;;9.90;99.90;;;;;;5094834;28;20032;-79
2023/12/14 00:41:10;;;;;;;13.73;8.13;;;9.90;99.90;;;;;;5094544;28;20033;-77
2023/12/14 00:43:38;;;;;;;14.60;7.57;;;10.00;99.90;;;;;;5094914;28;20028;-79
2023/12/14 00:46:04;;;;;;;12.82;7.88;;;10.00;99.90;;;;;;5093435;28;20490;-77
2023/12/14 00:48:29;;;;;;;16.00;8.68;;;9.90;99.90;;;;;;5089044;28;20037;-78
2023/12/14 00:50:55;;;;;;;17.85;10.65;;;10.00;99.90;;;;;;5088441;28;20024;-75
2023/12/14 00:53:21;;;;;;;21.20;13.38;;;10.00;99.90;;;;;;5094249;28;20016;-78
2023/12/14 00:55:47;;;;;;;21.27;13.00;;;10.10;99.90;;;;;;5094842;28;20390;-75
2023/12/14 00:58:13;;;;;;;22.35;12.52;;;10.10;99.90;;;;;;5094334;28;20095;-77
2023/12/14 01:00:39;;;;;;;21.15;13.15;;;10.10;99.90;;;;;;5094785;28;20507;-78
2023/12/14 01:03:06;;;;;;;20.05;12.30;;;10.20;99.90;;;;;;5094069;28;20108;-79
2023/12/14 01:05:32;;;;;;;21.35;13.40;;;10.20;99.90;;;;;;5092178;28;20019;-77
2023/12/14 01:07:57;;;;;;;21.75;11.93;;;10.20;99.90;;;;;;5094037;28;20437;-79
2023/12/14 01:10:23;;;;;;;21.38;11.25;;;10.20;99.90;;;;;;5081864;28;20037;-79
2023/12/14 01:12:50;;;;;;;18.17;11.65;;;10.30;99.90;;;;;;5078232;28;20029;-76
2023/12/14 01:15:15;;;;;;;18.75;11.57;;;10.20;99.90;;;;;;5079695;28;20029;-78
2023/12/14 01:17:41;;;;;;;18.73;10.15;;;10.10;99.90;;;;;;5074492;28;20166;-77
2023/12/14 01:20:08;;;;;;;18.80;10.23;;;10.10;99.90;;;;;;5076167;28;20024;-77
2023/12/14 01:22:34;;;;;;;18.63;10.95;;;10.10;99.90;;;;;;5073144;28;20025;-77
2023/12/14 01:25:00;;;;;;;17.20;10.52;;;10.10;99.90;;;;;;5075720;28;20144;-78
2023/12/14 01:27:26;;;;;;;17.40;8.73;;;10.00;99.90;;;;;;5078675;28;20096;-76
2023/12/14 01:29:52;;;;;;;16.02;8.57;;;10.00;99.90;;;;;;5076622;28;20115;-77
2023/12/14 01:32:19;;;;;;;15.95;8.45;;;10.00;99.90;;;;;;5074008;28;20333;-76
2023/12/14 01:34:45;;;;;;;13.60;7.90;;;10.00;99.90;;;;;;5072421;28;20024;-78
2023/12/14 01:37:11;;;;;;;13.27;6.85;;;10.00;99.90;;;;;;5071941;28;20017;-78
2023/12/14 01:39:36;;;;;;;12.30;6.65;;;10.00;99.90;;;;;;5078416;28;20099;-75
2023/12/14 01:42:02;;;;;;;10.85;6.72;;;9.90;99.90;;;;;;5082556;28;20054;-77
2023/12/14 01:44:28;;;;;;;12.82;7.75;;;10.00;99.90;;;;;;5075051;28;20033;-77
2023/12/14 01:46:54;;;;;;;12.90;7.80;;;10.00;99.90;;;;;;5076883;28;20067;-76
2023/12/14 01:49:20;;;;;;;13.70;7.65;;;9.90;99.90;;;;;;5075932;28;20094;-78
2023/12/14 01:51:47;;;;;;;11.43;6.22;;;9.90;99.90;;;;;;5075759;28;20044;-78
2023/12/14 01:54:13;;;;;;;12.10;6.00;;;9.80;99.90;;;;;;5076625;28;20029;-78
2023/12/14 01:56:40;;;;;;;8.77;5.20;;;9.80;99.90;;;;;;5074385;28;20043;-78
2023/12/14 01:59:06;;;;;;;15.93;10.52;;;9.90;99.90;;;;;;5072810;28;20016;-78
2023/12/14 02:01:53;;;;;;;14.02;8.95;;;9.90;99.90;;;;;;5054433;28;20040;-77
2023/12/14 02:04:19;;;;;;;10.50;6.85;;;9.90;99.90;;;;;;5075071;28;20091;-78
2023/12/14 02:06:44;;;;;;;11.75;6.40;;;9.90;99.90;;;;;;5076224;28;20016;-79
2023/12/14 02:09:10;;;;;;;10.15;6.22;;;9.90;99.90;;;;;;5072363;28;20020;-78
2023/12/14 02:11:36;;;;;;;13.35;6.68;;;9.90;99.90;;;;;;5090867;28;20021;-78
2023/12/14 02:14:06;;;;;;;8.85;5.38;;;10.00;99.90;;;;;;5074762;28;20157;-79
2023/12/14 02:16:32;;;;;;;10.63;6.43;;;10.00;99.90;;;;;;5074829;28;20048;-78
2023/12/14 02:18:58;;;;;;;11.00;5.80;;;10.00;99.90;;;;;;5072119;28;20097;-78
2023/12/14 02:21:24;;;;;;;11.23;5.65;;;10.00;99.90;;;;;;5071764;28;20012;-78
2023/12/14 02:23:50;;;;;;;10.40;6.30;;;9.90;99.90;;;;;;5074783;28;20024;-79
2023/12/14 02:26:16;;;;;;;11.63;6.35;;;9.90;99.90;;;;;;5075873;28;20024;-79
2023/12/14 02:28:42;;;;;;;12.68;6.15;;;9.90;99.90;;;;;;5073208;28;20095;-79
2023/12/14 02:31:08;;;;;;;10.68;6.28;;;10.00;99.90;;;;;;5072889;28;20589;-79
2023/12/14 02:33:33;;;;;;;13.30;6.68;;;10.00;99.90;;;;;;5071181;28;20024;-79
2023/12/14 02:36:00;;;;;;;11.57;6.38;;;9.90;99.90;;;;;;5078005;28;20107;-78
2023/12/14 02:38:26;;;;;;;12.07;6.47;;;9.90;99.90;;;;;;5073184;28;20029;-78
2023/12/14 02:40:52;;;;;;;11.63;6.20;;;9.90;99.90;;;;;;5073977;28;20031;-78
2023/12/14 02:43:19;;;;;;;10.82;6.22;;;9.90;99.90;;;;;;5073904;28;20016;-78
2023/12/14 02:45:45;;;;;;;9.95;5.90;;;9.90;99.90;;;;;;5071794;28;20025;-78
2023/12/14 02:48:11;;;;;;;10.63;5.75;;;9.90;99.90;;;;;;5074400;28;20103;-75
2023/12/14 02:50:37;;;;;;;8.68;5.13;;;9.90;99.90;;;;;;5076637;28;20486;-78
2023/12/14 02:53:03;;;;;;;9.65;5.07;;;9.90;99.90;;;;;;5072743;28;20016;-77
2023/12/14 02:55:29;;;;;;;8.07;4.47;;;9.90;99.90;;;;;;5073318;28;20039;-78
2023/12/14 02:57:55;;;;;;;9.93;4.82;;;9.90;99.90;;;;;;5070755;28;20017;-77
2023/12/14 03:00:21;;;;;;;16.48;8.85;;;9.90;99.90;;;;;;5078371;28;20028;-78
2023/12/14 03:02:47;;;;;;;13.65;6.55;;;9.90;99.90;;;;;;5073707;28;20081;-79
2023/12/14 03:05:13;;;;;;;14.50;8.50;;;9.90;99.90;;;;;;5074732;28;20063;-78
2023/12/14 03:07:39;;;;;;;8.05;5.00;;;9.90;99.90;;;;;;5071637;28;20017;-79
2023/12/14 03:10:05;;;;;;;7.80;4.80;;;9.90;99.90;;;;;;5071057;28;20529;-78
2023/12/14 03:12:31;;;;;;;25.67;16.42;;;9.90;99.90;;;;;;5089596;28;20672;-78
2023/12/14 03:14:57;;;;;;;25.85;14.65;;;10.00;99.90;;;;;;5074143;28;20027;-79
2023/12/14 03:17:23;;;;;;;26.85;16.10;;;10.00;99.90;;;;;;5071328;28;20120;-79
2023/12/14 03:19:48;;;;;;;15.55;9.43;;;10.00;99.90;;;;;;5070825;28;20505;-78
2023/12/14 03:22:14;;;;;;;12.05;7.22;;;10.00;99.90;;;;;;5074075;28;20024;-79
2023/12/14 03:24:42;;;;;;;8.93;5.22;;;10.10;99.90;;;;;;5075733;28;20024;-78
2023/12/14 03:27:08;;;;;;;6.53;4.30;;;10.10;99.90;;;;;;5072928;28;20020;-78
2023/12/14 03:29:34;;;;;;;7.80;4.15;;;10.10;99.90;;;;;;5072331;28;20094;-78
2023/12/14 03:32:00;;;;;;;10.40;5.57;;;10.10;99.90;;;;;;5070660;28;20047;-78
2023/12/14 03:34:26;;;;;;;11.13;5.13;;;10.10;99.90;;;;;;5077304;28;20410;-77
2023/12/14 03:36:52;;;;;;;9.05;4.50;;;10.10;99.90;;;;;;5073351;28;20027;-78
2023/12/14 03:39:18;;;;;;;8.52;4.35;;;10.10;99.90;;;;;;5076003;28;20094;-79
2023/12/14 03:41:44;;;;;;;8.60;5.03;;;10.10;99.90;;;;;;5075950;28;20017;-78
2023/12/14 03:44:10;;;;;;;7.03;4.15;;;10.10;99.90;;;;;;5077888;28;20089;-77
2023/12/14 03:46:36;;;;;;;10.40;5.28;;;10.10;99.90;;;;;;5077480;28;20048;-77
2023/12/14 03:49:03;;;;;;;8.85;5.10;;;10.10;99.90;;;;;;5078865;28;20082;-77
2023/12/14 03:51:30;;;;;;;8.35;4.60;;;10.10;99.90;;;;;;5075320;28;20044;-78
2023/12/14 03:53:56;;;;;;;10.38;5.13;;;10.10;99.90;;;;;;5093122;28;20016;-77
2023/12/14 03:56:22;;;;;;;7.25;4.10;;;10.10;99.90;;;;;;5095615;28;20378;-78
2023/12/14 03:58:48;;;;;;;10.50;5.05;;;10.10;99.90;;;;;;5095953;28;20425;-79
2023/12/14 04:01:18;;;;;;;8.48;4.43;;;10.10;99.90;;;;;;5095136;28;20024;-78
2023/12/14 04:03:44;;;;;;;6.50;3.63;;;10.10;99.90;;;;;;5095845;28;20031;-78
2023/12/14 04:06:11;;;;;;;5.82;2.75;;;10.20;99.90;;;;;;5095696;28;20035;-78
2023/12/14 04:08:37;;;;;;;7.25;3.45;;;10.20;99.90;;;;;;5095519;28;20021;-79
2023/12/14 04:11:03;;;;;;;5.50;2.95;;;10.20;99.90;;;;;;5095217;28;20028;-77
2023/12/14 04:13:29;;;;;;;7.03;3.50;;;10.10;99.90;;;;;;5095101;28;20033;-77
2023/12/14 04:15:55;;;;;;;9.85;4.78;;;10.20;99.90;;;;;;5087857;28;20086;-75
2023/12/14 04:18:21;;;;;;;8.00;4.43;;;10.20;99.90;;;;;;5093233;28;20070;-77
2023/12/14 04:20:47;;;;;;;6.95;4.15;;;10.20;99.90;;;;;;5095117;28;20028;-78
2023/12/14 04:23:13;;;;;;;8.95;4.95;;;10.20;99.90;;;;;;5094874;28;20035;-78
2023/12/14 04:25:38;;;;;;;8.80;4.88;;;10.20;99.90;;;;;;5095058;28;20028;-78
2023/12/14 04:28:04;;;;;;;7.57;4.07;;;10.20;99.90;;;;;;5094865;28;20023;-78
2023/12/14 04:30:30;;;;;;;8.75;4.85;;;10.20;99.90;;;;;;5094881;28;20039;-78
2023/12/14 04:32:56;;;;;;;11.35;4.85;;;10.30;99.90;;;;;;5095180;28;20024;-77
2023/12/14 04:35:22;;;;;;;7.57;3.50;;;10.30;99.90;;;;;;5094688;28;20035;-79
2023/12/14 04:37:49;;;;;;;6.53;3.15;;;10.20;99.90;;;;;;5094863;28;20144;-78
2023/12/14 04:40:15;;;;;;;7.35;3.60;;;10.20;99.90;;;;;;5094681;28;20025;-78
2023/12/14 04:42:41;;;;;;;7.40;4.20;;;10.30;99.90;;;;;;5094905;28;20070;-79
2023/12/14 04:45:08;;;;;;;9.57;4.82;;;10.20;99.90;;;;;;5094468;28;20402;-79
2023/12/14 04:47:35;;;;;;;6.78;3.30;;;10.30;99.90;;;;;;5063354;28;20055;-76
2023/12/14 04:50:02;;;;;;;10.57;4.70;;;10.30;99.90;;;;;;5093629;28;20054;-78
2023/12/14 04:52:28;;;;;;;8.55;4.78;;;10.20;99.90;;;;;;5093965;28;20049;-76
2023/12/14 04:54:54;;;;;;;11.32;5.38;;;10.10;99.90;;;;;;5094800;28;20024;-74
2023/12/14 04:57:20;;;;;;;12.75;6.72;;;10.00;99.90;;;;;;5094406;28;20442;-76
2023/12/14 04:59:46;;;;;;;10.93;5.40;;;10.00;99.90;;;;;;5094530;28;20024;-78
2023/12/14 05:02:12;;;;;;;10.00;5.22;;;10.00;99.90;;;;;;5094234;28;20485;-78
2023/12/14 05:04:37;;;;;;;8.98;4.70;;;10.00;99.90;;;;;;5094439;28;20099;-79
2023/12/14 05:07:03;;;;;;;13.63;6.45;;;10.10;99.90;;;;;;5094233;28;20032;-78
2023/12/14 05:09:29;;;;;;;10.63;5.95;;;10.10;99.90;;;;;;5094458;28;20035;-77
2023/12/14 05:11:55;;;;;;;15.43;8.30;;;10.10;99.90;;;;;;5093699;28;20432;-79
2023/12/14 05:14:21;;;;;;;35.05;12.73;;;10.10;99.90;;;;;;5094746;28;20030;-74
2023/12/14 05:16:47;;;;;;;18.42;8.95;;;10.10;99.90;;;;;;5094285;28;20048;-79
2023/12/14 05:19:13;;;;;;;17.55;8.82;;;10.10;99.90;;;;;;5074081;28;20024;-78
2023/12/14 05:21:39;;;;;;;12.75;6.30;;;10.10;99.90;;;;;;5088401;28;20034;-79
2023/12/14 05:24:05;;;;;;;14.27;6.65;;;10.00;99.90;;;;;;5075916;28;20099;-74
2023/12/14 05:26:31;;;;;;;11.38;6.10;;;10.10;99.90;;;;;;5096575;28;20024;-76
2023/12/14 05:28:57;;;;;;;23.10;12.35;;;10.00;99.90;;;;;;5097650;28;20024;-77
2023/12/14 05:31:23;;;;;;;14.88;7.68;;;10.00;99.90;;;;;;5094695;28;20496;-79
2023/12/14 05:33:49;;;;;;;12.40;7.05;;;10.00;99.90;;;;;;5093640;28;20378;-77
2023/12/14 05:36:15;;;;;;;14.50;7.28;;;10.00;99.90;;;;;;5094045;28;20028;-77
2023/12/14 05:38:42;;;;;;;28.05;16.00;;;10.00;99.90;;;;;;5093478;28;20095;-76
2023/12/14 05:41:08;;;;;;;26.25;15.65;;;10.10;99.90;;;;;;5093783;28;20045;-77
2023/12/14 05:43:34;;;;;;;55.67;34.20;;;10.00;99.90;;;;;;5093744;28;20128;-78
2023/12/14 05:46:00;;;;;;;46.80;31.13;;;10.00;99.90;;;;;;5093500;28;20032;-76
2023/12/14 05:48:29;;;;;;;45.03;28.75;;;10.10;99.90;;;;;;5093508;28;20046;-77
2023/12/14 05:50:56;;;;;;;41.00;27.40;;;10.00;99.90;;;;;;5093453;28;20067;-77
2023/12/14 05:53:22;;;;;;;36.38;21.38;;;10.00;99.90;;;;;;5093217;28;20503;-75
2023/12/14 05:55:48;;;;;;;35.90;23.40;;;10.10;99.90;;;;;;5093350;28;20032;-76
2023/12/14 05:58:14;;;;;;;36.65;23.65;;;10.10;99.90;;;;;;5093500;28;20020;-77
2023/12/14 06:00:40;;;;;;;35.97;22.15;;;10.10;99.90;;;;;;5093439;28;20027;-76
2023/12/14 06:03:06;;;;;;;40.42;23.45;;;10.10;99.90;;;;;;5093407;28;20094;-77
2023/12/14 06:05:32;;;;;;;36.20;24.20;;;10.10;99.90;;;;;;5093143;28;20107;-77
2023/12/14 06:07:58;;;;;;;34.22;25.05;;;10.10;99.90;;;;;;5093875;28;20173;-77
2023/12/14 06:10:24;;;;;;;43.03;30.20;;;10.10;99.90;;;;;;5092948;28;20054;-77
2023/12/14 06:12:50;;;;;;;64.38;43.45;;;10.10;99.90;;;;;;5093075;28;20081;-75
2023/12/14 06:15:16;;;;;;;44.85;31.02;;;10.00;99.90;;;;;;5092833;28;20024;-73
2023/12/14 06:17:42;;;;;;;38.17;24.10;;;9.90;99.90;;;;;;5093005;28;20516;-78
2023/12/14 06:20:08;;;;;;;49.13;35.05;;;9.90;99.90;;;;;;5092827;28;20020;-77
2023/12/14 06:22:37;;;;;;;49.58;35.28;;;9.90;99.90;;;;;;5092590;28;20016;-76
2023/12/14 06:25:04;;;;;;;38.13;27.08;;;9.90;99.90;;;;;;5080019;28;20363;-76
2023/12/14 06:27:30;;;;;;;42.38;26.95;;;9.90;99.90;;;;;;5092777;28;20502;-75
2023/12/14 06:29:56;;;;;;;45.30;28.42;;;9.90;99.90;;;;;;5092792;28;20119;-76
2023/12/14 06:32:22;;;;;;;52.78;36.10;;;9.90;99.90;;;;;;5092253;28;20024;-77
2023/12/14 06:34:48;;;;;;;65.78;45.78;;;9.90;99.90;;;;;;5092745;28;20347;-77
2023/12/14 06:37:14;;;;;;;34.72;23.20;;;9.80;99.90;;;;;;5092599;28;20032;-74
2023/12/14 06:39:43;;;;;;;28.17;19.75;;;9.80;99.90;;;;;;5092453;28;20027;-76
2023/12/14 06:42:09;;;;;;;30.40;20.05;;;9.80;99.90;;;;;;5092312;28;20016;-77
2023/12/14 06:44:35;;;;;;;25.90;17.48;;;9.80;99.90;;;;;;5092239;28;20062;-77
2023/12/14 06:47:01;;;;;;;25.85;14.82;;;9.70;99.90;;;;;;5106119;28;20047;-77
2023/12/14 06:49:27;;;;;;;21.95;14.48;;;9.70;99.90;;;;;;5092388;28;20075;-77
2023/12/14 06:51:53;;;;;;;23.55;14.95;;;9.70;99.90;;;;;;5108009;28;20035;-74
2023/12/14 06:54:19;;;;;;;24.88;14.65;;;9.80;99.90;;;;;;5092110;28;20035;-75
2023/12/14 06:56:45;;;;;;;25.88;17.10;;;9.70;99.90;;;;;;5092254;28;20486;-76
2023/12/14 06:59:10;;;;;;;24.67;15.75;;;9.80;99.90;;;;;;5092307;28;20095;-76
2023/12/14 07:01:36;;;;;;;18.08;9.68;;;9.60;99.90;;;;;;5092598;28;20028;-76
2023/12/14 07:04:05;;;;;;;14.43;8.70;;;9.60;99.90;;;;;;5092276;28;20427;-74
2023/12/14 07:06:31;;;;;;;17.63;10.50;;;9.50;99.90;;;;;;5092368;28;20117;-77
2023/12/14 07:08:57;;;;;;;19.05;11.45;;;9.50;99.90;;;;;;5092323;28;20063;-77
2023/12/14 07:11:23;;;;;;;38.90;23.35;;;9.50;99.90;;;;;;5091941;28;20032;-77
2023/12/14 07:13:48;;;;;;;50.75;31.73;;;9.60;99.90;;;;;;5091651;28;20391;-76
2023/12/14 07:16:17;;;;;;;43.13;27.77;;;9.60;99.90;;;;;;5091837;28;20040;-77
2023/12/14 07:18:44;;;;;;;36.47;24.15;;;9.70;99.90;;;;;;5092296;28;20032;-74
2023/12/14 07:21:10;;;;;;;32.47;20.10;;;9.70;99.90;;;;;;5091905;28;20115;-76
2023/12/14 07:23:37;;;;;;;23.92;15.35;;;9.70;99.90;;;;;;5092127;28;20403;-77
2023/12/14 07:26:03;;;;;;;22.67;13.68;;;9.60;99.90;;;;;;5092055;28;20081;-76
2023/12/14 07:28:29;;;;;;;24.75;14.48;;;9.50;99.90;;;;;;5091932;28;20040;-77
2023/12/14 07:30:55;;;;;;;22.02;14.25;;;9.60;99.90;;;;;;5092085;28;20119;-75
2023/12/14 07:33:21;;;;;;;24.75;15.45;;;9.70;99.90;;;;;;5091991;28;20052;-77
2023/12/14 07:35:47;;;;;;;24.98;15.93;;;9.70;99.90;;;;;;5091349;28;20434;-77
2023/12/14 07:38:13;;;;;;;22.67;14.73;;;9.80;99.90;;;;;;5091834;28;20135;-77
2023/12/14 07:40:40;;;;;;;21.08;14.02;;;9.70;99.90;;;;;;5091965;28;20103;-77
2023/12/14 07:43:07;;;;;;;26.25;16.48;;;9.70;99.90;;;;;;5091917;28;20073;-78
2023/12/14 07:45:32;;;;;;;21.27;15.20;;;9.80;99.90;;;;;;5091761;28;20481;-77
2023/12/14 07:47:58;;;;;;;24.23;15.90;;;9.70;99.90;;;;;;5091843;28;20081;-78
2023/12/14 07:50:26;;;;;;;28.42;18.85;;;9.70;99.90;;;;;;5092146;28;20032;-78
2023/12/14 07:52:52;;;;;;;29.17;18.73;;;9.70;99.90;;;;;;5091710;28;20051;-76
2023/12/14 07:55:18;;;;;;;29.38;18.65;;;9.70;99.90;;;;;;5091725;28;20035;-78
2023/12/14 07:57:44;;;;;;;33.95;24.63;;;9.70;99.90;;;;;;5091862;28;20020;-78
2023/12/14 08:00:11;;;;;;;41.92;31.83;;;9.70;99.90;;;;;;5091690;28;20490;-77
2023/12/14 08:02:37;;;;;;;36.03;27.55;;;9.60;99.90;;;;;;5091840;28;20024;-76
2023/12/14 08:05:03;;;;;;;44.05;27.75;;;9.60;99.90;;;;;;5091662;28;20092;-77
2023/12/14 08:07:29;;;;;;;35.42;24.95;;;9.50;99.90;;;;;;5091795;28;20016;-77
2023/12/14 08:09:56;;;;;;;30.42;20.98;;;9.40;99.90;;;;;;5091253;28;20047;-77
2023/12/14 08:12:23;;;;;;;29.58;18.73;;;9.40;99.90;;;;;;5091578;28;20024;-77
2023/12/14 08:14:49;;;;;;;29.42;20.60;;;9.40;99.90;;;;;;5091190;28;20055;-78
2023/12/14 08:17:14;;;;;;;30.13;20.83;;;9.50;99.90;;;;;;5091594;28;20043;-77
2023/12/14 08:19:40;;;;;;;30.13;19.80;;;9.40;99.90;;;;;;5091417;28;20025;-77
2023/12/14 08:22:07;;;;;;;30.45;19.80;;;9.40;99.90;;;;;;5091317;28;20031;-77
2023/12/14 08:24:33;;;;;;;27.08;17.73;;;9.40;99.90;;;;;;5092101;28;20017;-75
2023/12/14 08:26:59;;;;;;;24.27;15.75;;;9.50;99.90;;;;;;5095118;28;20033;-78
2023/12/14 08:29:25;;;;;;;20.92;13.13;;;9.40;99.90;;;;;;5095007;28;20055;-77
2023/12/14 08:31:51;;;;;;;20.80;13.15;;;9.40;99.90;;;;;;5095025;28;20368;-77
2023/12/14 08:34:16;;;;;;;29.63;17.90;;;9.40;99.90;;;;;;5095573;28;20069;-73
2023/12/14 08:36:42;;;;;;;13.40;8.13;;;9.40;99.90;;;;;;5094743;28;20104;-77
2023/12/14 08:39:08;;;;;;;20.00;11.00;;;9.30;99.90;;;;;;5094714;28;20023;-78
2023/12/14 08:41:34;;;;;;;41.63;23.10;;;9.30;99.90;;;;;;5094775;28;20059;-77
2023/12/14 08:44:00;;;;;;;36.40;21.83;;;9.40;99.90;;;;;;5094578;28;20450;-76
2023/12/14 08:46:26;;;;;;;20.63;13.07;;;9.40;99.90;;;;;;5094419;28;20119;-73
2023/12/14 08:48:51;;;;;;;14.77;8.00;;;9.30;99.90;;;;;;5094433;28;20467;-77
2023/12/14 08:51:19;;;;;;;10.63;6.30;;;9.40;99.90;;;;;;5110367;28;20036;-77
2023/12/14 08:53:45;;;;;;;8.65;4.80;;;9.40;99.90;;;;;;5094751;28;20020;-76
2023/12/14 08:56:11;;;;;;;8.55;5.00;;;9.40;99.90;;;;;;5094695;28;20479;-75
2023/12/14 08:58:36;;;;;;;8.27;4.82;;;9.40;99.90;;;;;;5094335;28;20425;-75
2023/12/14 09:01:03;;;;;;;7.65;4.60;;;9.40;99.90;;;;;;5094955;28;20455;-78
2023/12/14 09:03:29;;;;;;;8.25;5.45;;;9.50;99.90;;;;;;5094363;28;20031;-77
2023/12/14 09:05:55;;;;;;;11.02;5.75;;;9.40;99.90;;;;;;5094599;28;20024;-77
2023/12/14 09:08:21;;;;;;;11.85;7.03;;;9.50;99.90;;;;;;5085942;28;20021;-77
2023/12/14 09:10:46;;;;;;;10.60;6.63;;;9.50;99.90;;;;;;5081139;28;20403;-75
2023/12/14 09:13:12;;;;;;;12.13;7.57;;;9.40;99.90;;;;;;5094042;28;20096;-73
2023/12/14 09:15:38;;;;;;;13.75;8.70;;;9.40;99.90;;;;;;5093896;28;20063;-76
2023/12/14 09:18:05;;;;;;;13.75;8.68;;;9.50;99.90;;;;;;5094568;28;20039;-76
2023/12/14 09:20:31;;;;;;;15.85;8.18;;;9.50;99.90;;;;;;5094126;28;20032;-72
2023/12/14 09:22:57;;;;;;;15.63;8.23;;;9.50;99.90;;;;;;5094060;28;20043;-74
2023/12/14 09:25:24;;;;;;;8.77;4.95;;;9.60;99.90;;;;;;5094026;28;20028;-73
2023/12/14 09:27:49;;;;;;;9.30;5.40;;;9.50;99.90;;;;;;5094222;28;20020;-76
2023/12/14 09:30:17;;;;;;;8.35;5.20;;;9.60;99.90;;;;;;5093805;28;20040;-73
2023/12/14 09:32:43;;;;;;;9.95;5.10;;;9.60;99.90;;;;;;5093988;28;20017;-75
2023/12/14 09:35:09;;;;;;;10.40;5.57;;;9.60;99.90;;;;;;5093312;28;20024;-76
2023/12/14 09:37:35;;;;;;;15.13;6.90;;;9.70;99.90;;;;;;5094047;28;20486;-75
2023/12/14 09:40:02;;;;;;;13.43;6.28;;;9.80;99.90;;;;;;5093829;28;20067;-76
2023/12/14 09:42:33;;;;;;;12.45;6.55;;;9.80;99.90;;;;;;5093608;28;20425;-78
2023/12/14 09:44:59;;;;;;;11.48;6.30;;;9.80;99.90;;;;;;5093728;28;20251;-77
2023/12/14 09:47:26;;;;;;;12.18;7.00;;;9.80;99.90;;;;;;5092974;28;20024;-77
2023/12/14 09:49:52;;;;;;;11.90;6.28;;;9.80;99.90;;;;;;5093768;28;20035;-75
2023/12/14 09:52:18;;;;;;;15.15;8.23;;;9.80;99.90;;;;;;5093429;28;20024;-76
2023/12/14 09:54:44;;;;;;;15.73;7.43;;;9.80;99.90;;;;;;5093540;28;20112;-76
2023/12/14 09:57:10;;;;;;;16.45;7.95;;;9.80;99.90;;;;;;5093481;28;20020;-74
2023/12/14 09:59:37;;;;;;;18.05;9.93;;;9.80;99.90;;;;;;5093656;28;20028;-74
2023/12/14 10:02:14;;;;;;;16.13;9.25;;;9.90;99.90;;;;;;5093615;28;20020;-75
2023/12/14 10:04:40;;;;;;;14.48;8.88;;;9.90;99.90;;;;;;5093264;28;20032;-75
2023/12/14 10:07:07;;;;;;;23.20;16.50;;;9.80;99.90;;;;;;5093517;28;20035;-76
2023/12/14 10:09:34;;;;;;;22.33;15.77;;;9.80;99.90;;;;;;5092953;28;20118;-75
2023/12/14 10:12:07;;;;;;;33.30;23.90;;;9.90;99.90;;;;;;5093539;28;20153;-74
2023/12/14 10:14:34;;;;;;;28.00;18.52;;;9.90;99.90;;;;;;5092840;28;20077;-74
2023/12/14 10:17:14;;;;;;;18.10;10.98;;;9.80;99.90;;;;;;5092719;28;20096;-73
2023/12/14 10:19:43;;;;;;;19.17;11.48;;;9.80;99.90;;;;;;5093148;28;20491;-75
2023/12/14 10:22:09;;;;;;;19.13;10.18;;;9.80;99.90;;;;;;5091278;28;20370;-76
2023/12/14 10:24:35;;;;;;;14.82;8.10;;;9.90;99.90;;;;;;5091838;28;20107;-75
2023/12/14 10:27:07;;;;;;;15.77;8.35;;;9.90;99.90;;;;;;5091470;28;20016;-72
2023/12/14 10:29:36;;;;;;;13.52;7.07;;;9.90;99.90;;;;;;5088267;28;20035;-75
2023/12/14 10:32:06;;;;;;;13.95;7.68;;;9.80;99.90;;;;;;5091651;28;20024;-75
2023/12/14 10:34:35;;;;;;;13.25;7.85;;;9.80;99.90;;;;;;5091283;28;20028;-76
2023/12/14 10:37:04;;;;;;;15.48;9.10;;;9.80;99.90;;;;;;5091389;28;20059;-74
2023/12/14 10:39:33;;;;;;;15.38;9.93;;;9.70;99.90;;;;;;5091084;28;20487;-73
2023/12/14 10:42:01;;;;;;;15.32;8.95;;;9.80;99.90;;;;;;5091342;28;20023;-76
2023/12/14 10:44:28;;;;;;;21.80;12.38;;;9.80;99.90;;;;;;5087153;28;20061;-76
2023/12/14 10:46:58;;;;;;;13.10;7.57;;;9.90;99.90;;;;;;5090442;28;20051;-75
2023/12/14 10:49:26;;;;;;;14.20;8.45;;;9.90;99.90;;;;;;5090923;28;20475;-74
2023/12/14 10:51:55;;;;;;;17.63;10.23;;;9.90;99.90;;;;;;5091168;28;20012;-76
2023/12/14 10:54:24;;;;;;;17.58;10.10;;;9.90;99.90;;;;;;5091304;28;20035;-77
2023/12/14 10:56:56;;;;;;;17.30;8.23;;;10.00;99.90;;;;;;5087194;28;20379;-77
2023/12/14 10:59:23;;;;;;;18.13;9.10;;;10.00;99.90;;;;;;5090956;28;20040;-75
2023/12/14 11:01:53;;;;;;;13.77;9.05;;;10.10;99.90;;;;;;5090794;28;20016;-77
2023/12/14 11:04:22;;;;;;;14.65;8.80;;;10.10;99.90;;;;;;5090523;28;20024;-74
2023/12/14 11:06:48;;;;;;;14.70;8.68;;;10.20;99.90;;;;;;5091237;28;20470;-73
2023/12/14 11:09:18;;;;;;;16.25;8.27;;;10.30;99.90;;;;;;5086895;28;20031;-76
2023/12/14 11:11:53;;;;;;;12.68;7.18;;;10.30;99.90;;;;;;5091093;28;20032;-76
2023/12/14 11:14:20;;;;;;;12.02;6.45;;;10.30;99.90;;;;;;5090456;28;20046;-76
2023/12/14 11:16:48;;;;;;;9.90;5.60;;;10.40;99.90;;;;;;5090473;28;20052;-74
2023/12/14 11:19:23;;;;;;;12.10;7.03;;;10.50;99.90;;;;;;5090967;28;20031;-77
2023/12/14 11:22:09;;;;;;;11.52;7.18;;;10.50;99.90;;;;;;5090561;28;20024;-76
2023/12/14 11:24:35;;;;;;;13.25;7.18;;;10.40;99.90;;;;;;5091087;28;20368;-77
2023/12/14 11:27:06;;;;;;;13.07;7.20;;;10.50;99.90;;;;;;5090506;28;20142;-76
2023/12/14 11:29:32;;;;;;;11.98;6.93;;;10.40;99.90;;;;;;5072284;28;20028;-77
2023/12/14 11:31:58;;;;;;;11.63;7.30;;;10.40;99.90;;;;;;5086763;28;20035;-77
2023/12/14 11:34:25;;;;;;;10.70;6.90;;;10.30;99.90;;;;;;5090569;28;20028;-76
2023/12/14 11:36:50;;;;;;;13.80;7.32;;;10.30;99.90;;;;;;5090630;28;20024;-75
2023/12/14 11:39:16;;;;;;;11.20;7.20;;;10.30;99.90;;;;;;5090521;28;20020;-74
2023/12/14 11:41:57;;;;;;;13.15;8.35;;;10.30;99.90;;;;;;5090639;28;20024;-73
2023/12/14 11:44:24;;;;;;;14.02;7.90;;;10.30;99.90;;;;;;5090305;28;20020;-76
2023/12/14 11:46:50;;;;;;;14.55;7.95;;;10.30;99.90;;;;;;5090323;28;20024;-77
2023/12/14 11:49:16;;;;;;;11.10;7.05;;;10.30;99.90;;;;;;5072620;28;20032;-75
2023/12/14 11:51:46;;;;;;;13.02;8.05;;;10.30;99.90;;;;;;5090529;28;20095;-77
2023/12/14 11:54:12;;;;;;;17.58;10.27;;;10.30;99.90;;;;;;5090650;28;20025;-74
2023/12/14 11:56:38;;;;;;;15.77;7.97;;;10.30;99.90;;;;;;5091518;28;20025;-78
2023/12/14 11:59:04;;;;;;;12.60;7.95;;;10.30;99.90;;;;;;5093458;28;20043;-72
2023/12/14 12:01:31;;;;;;;15.15;8.55;;;10.20;99.90;;;;;;5095300;28;20313;-73
2023/12/14 12:04:10;;;;;;;18.20;9.48;;;10.30;99.90;;;;;;5095936;28;20030;-76
2023/12/14 12:06:36;;;;;;;16.45;9.80;;;10.20;99.90;;;;;;5095535;28;20034;-78
2023/12/14 12:09:07;;;;;;;16.27;9.18;;;10.10;99.90;;;;;;5094724;28;20991;-77
2023/12/14 12:11:33;;;;;;;17.90;10.25;;;10.20;99.90;;;;;;5083801;28;20360;-77
2023/12/14 12:14:00;;;;;;;15.77;10.23;;;10.20;99.90;;;;;;5094585;28;20020;-78
2023/12/14 12:16:26;;;;;;;15.77;9.10;;;10.20;99.90;;;;;;5095148;28;20105;-77
2023/12/14 12:18:52;;;;;;;18.83;10.18;;;10.30;99.90;;;;;;5095157;28;20028;-77
2023/12/14 12:21:18;;;;;;;14.43;9.18;;;10.20;99.90;;;;;;5095578;28;20060;-77
2023/12/14 12:23:44;;;;;;;15.93;9.57;;;10.30;99.90;;;;;;5094446;28;20020;-76
2023/12/14 12:26:10;;;;;;;12.88;8.40;;;10.40;99.90;;;;;;5095206;28;20024;-77
2023/12/14 12:28:36;;;;;;;16.25;10.05;;;10.50;99.90;;;;;;5094684;28;20470;-78
2023/12/14 12:31:03;;;;;;;13.48;8.43;;;10.40;99.90;;;;;;5093313;28;20032;-76
2023/12/14 12:33:29;;;;;;;15.55;9.23;;;10.40;99.90;;;;;;5094613;28;20016;-77
2023/12/14 12:35:55;;;;;;;15.40;8.32;;;10.40;99.90;;;;;;5093964;28;20144;-76
2023/12/14 12:38:21;;;;;;;14.95;8.63;;;10.30;99.90;;;;;;5094634;28;20429;-78